createdAt,value
2019-03-26T00:00:53.238Z,91.83
2019-03-26T00:01:54.084Z,91.62
2019-03-26T00:02:53.347Z,91.72
2019-03-26T00:04:05.264Z,91.93
2019-03-26T00:04:54.107Z,91.93
2019-03-26T00:05:53.027Z,92.35
2019-03-26T00:06:53.109Z,92.35
2019-03-26T00:07:53.005Z,92.10
2019-03-26T00:08:53.064Z,91.93
2019-03-26T00:09:52.998Z,91.93
2019-03-26T00:10:52.947Z,92.35
2019-03-26T00:11:52.920Z,92.24
2019-03-26T00:12:52.982Z,92.24
2019-03-26T00:13:52.909Z,92.35
2019-03-26T00:14:52.968Z,92.45
2019-03-26T00:15:52.903Z,92.29
2019-03-26T00:16:52.897Z,92.39
2019-03-26T00:17:52.914Z,92.14
2019-03-26T00:18:52.957Z,91.97
2019-03-26T00:19:52.928Z,92.18
2019-03-26T00:20:52.896Z,92.29
2019-03-26T00:21:52.877Z,92.70
2019-03-26T00:22:52.871Z,92.18
2019-03-26T00:23:52.806Z,92.55
2019-03-26T00:24:52.789Z,92.49
2019-03-26T00:25:52.845Z,92.39
2019-03-26T00:26:52.788Z,92.80
2019-03-26T00:27:52.860Z,93.12
2019-03-26T00:28:52.798Z,93.95
2019-03-26T00:29:52.873Z,93.43
2019-03-26T00:30:52.891Z,93.12
2019-03-26T00:31:52.786Z,93.43
2019-03-26T00:32:52.723Z,93.54
2019-03-26T00:33:52.935Z,93.54
2019-03-26T00:34:52.921Z,93.74
2019-03-26T00:35:53.369Z,93.54
2019-03-26T00:36:53.321Z,93.95
2019-03-26T00:37:52.710Z,94.26
2019-03-26T00:38:52.684Z,94.10
2019-03-26T00:39:52.704Z,93.95
2019-03-26T00:40:52.673Z,94.26
2019-03-26T00:41:52.647Z,94.57
2019-03-26T00:42:52.653Z,94.47
2019-03-26T00:43:52.588Z,94.47
2019-03-26T00:44:52.597Z,94.68
2019-03-26T00:45:52.632Z,94.51
2019-03-26T00:46:52.583Z,94.37
2019-03-26T00:47:52.573Z,94.62
2019-03-26T00:48:52.550Z,94.37
2019-03-26T00:49:52.542Z,94.26
2019-03-26T00:50:52.554Z,93.95
2019-03-26T00:51:52.549Z,94.47
2019-03-26T00:52:52.694Z,94.68
2019-03-26T00:53:52.496Z,94.62
2019-03-26T00:54:52.540Z,94.62
2019-03-26T00:55:52.491Z,94.68
2019-03-26T00:56:52.492Z,95.25
2019-03-26T00:57:52.470Z,94.57
2019-03-26T00:58:52.448Z,94.93
2019-03-26T00:59:52.426Z,94.78
2019-03-26T01:00:52.460Z,95.03
2019-03-26T01:01:52.450Z,94.82
2019-03-26T01:02:52.430Z,95.09
2019-03-26T01:03:55.055Z,95.14
2019-03-26T01:04:52.386Z,95.03
2019-03-26T01:05:52.387Z,95.03
2019-03-26T01:06:52.399Z,95.14
2019-03-26T01:07:52.368Z,95.14
2019-03-26T01:08:52.364Z,94.82
2019-03-26T01:09:52.361Z,95.03
2019-03-26T01:10:52.331Z,95.45
2019-03-26T01:11:52.376Z,95.66
2019-03-26T01:12:52.291Z,95.45
2019-03-26T01:13:52.314Z,94.82
2019-03-26T01:14:52.304Z,95.25
2019-03-26T01:15:52.302Z,95.66
2019-03-26T01:16:52.315Z,95.87
2019-03-26T01:17:52.264Z,95.66
2019-03-26T01:18:52.449Z,95.76
2019-03-26T01:19:52.250Z,95.45
2019-03-26T01:20:52.229Z,95.35
2019-03-26T01:21:52.301Z,95.25
2019-03-26T01:22:52.214Z,95.91
2019-03-26T01:23:52.259Z,96.39
2019-03-26T01:24:52.191Z,96.22
2019-03-26T01:25:52.150Z,95.97
2019-03-26T01:26:52.818Z,96.08
2019-03-26T01:27:52.155Z,96.08
2019-03-26T01:28:52.161Z,96.12
2019-03-26T01:29:52.131Z,96.08
2019-03-26T01:30:52.127Z,96.08
2019-03-26T01:31:52.116Z,96.08
2019-03-26T01:32:52.098Z,96.95
2019-03-26T01:33:52.177Z,96.70
2019-03-26T01:34:52.107Z,96.49
2019-03-26T01:35:52.054Z,96.18
2019-03-26T01:36:52.055Z,96.39
2019-03-26T01:37:52.044Z,96.49
2019-03-26T01:38:52.048Z,96.18
2019-03-26T01:39:52.116Z,96.75
2019-03-26T01:40:52.021Z,96.85
2019-03-26T01:41:52.003Z,96.85
2019-03-26T01:42:52.024Z,96.80
2019-03-26T01:43:52.893Z,97.78
2019-03-26T01:44:52.003Z,97.58
2019-03-26T01:45:51.964Z,97.37
2019-03-26T01:46:51.964Z,97.27
2019-03-26T01:47:51.935Z,97.27
2019-03-26T01:48:51.974Z,97.16
2019-03-26T01:49:52.008Z,97.68
2019-03-26T01:50:51.909Z,97.99
2019-03-26T01:51:51.906Z,97.43
2019-03-26T01:52:51.926Z,97.64
2019-03-26T01:53:51.872Z,97.78
2019-03-26T01:54:51.942Z,97.64
2019-03-26T01:55:51.966Z,97.33
2019-03-26T01:56:51.914Z,97.43
2019-03-26T01:57:51.845Z,97.33
2019-03-26T01:58:51.848Z,97.53
2019-03-26T01:59:51.869Z,97.33
2019-03-26T02:00:51.811Z,97.43
2019-03-26T02:01:51.800Z,97.85
2019-03-26T02:02:51.810Z,97.64
2019-03-26T02:03:51.809Z,97.64
2019-03-26T02:04:59.798Z,97.68
2019-03-26T02:05:52.750Z,97.78
2019-03-26T02:06:51.747Z,97.78
2019-03-26T02:07:51.749Z,97.89
2019-03-26T02:08:51.727Z,97.89
2019-03-26T02:09:51.760Z,97.64
2019-03-26T02:10:51.731Z,97.68
2019-03-26T02:11:51.721Z,97.47
2019-03-26T02:12:51.724Z,97.78
2019-03-26T02:13:51.661Z,97.58
2019-03-26T02:14:51.653Z,97.78
2019-03-26T02:15:51.702Z,97.58
2019-03-26T02:16:51.659Z,97.37
2019-03-26T02:17:51.627Z,97.58
2019-03-26T02:18:51.619Z,97.58
2019-03-26T02:19:51.614Z,97.58
2019-03-26T02:20:51.590Z,97.68
2019-03-26T02:21:51.603Z,97.58
2019-03-26T02:22:51.599Z,97.99
2019-03-26T02:23:51.675Z,98.31
2019-03-26T02:24:51.541Z,98.20
2019-03-26T02:25:51.587Z,98.41
2019-03-26T02:26:51.636Z,97.99
2019-03-26T02:27:51.554Z,97.99
2019-03-26T02:28:51.543Z,99.04
2019-03-26T02:29:51.565Z,98.93
2019-03-26T02:30:51.486Z,98.62
2019-03-26T02:31:51.499Z,98.52
2019-03-26T02:32:51.495Z,98.68
2019-03-26T02:33:51.497Z,98.52
2019-03-26T02:34:51.461Z,98.52
2019-03-26T02:35:51.452Z,99.04
2019-03-26T02:36:51.428Z,98.78
2019-03-26T02:37:51.436Z,99.04
2019-03-26T02:38:51.430Z,99.41
2019-03-26T02:39:51.421Z,98.93
2019-03-26T02:40:51.372Z,98.78
2019-03-26T02:41:51.430Z,98.88
2019-03-26T02:42:51.417Z,98.52
2019-03-26T02:43:51.441Z,98.26
2019-03-26T02:44:51.342Z,98.47
2019-03-26T02:45:51.359Z,98.78
2019-03-26T02:46:51.338Z,98.72
2019-03-26T02:47:51.325Z,98.99
2019-03-26T02:48:51.342Z,98.16
2019-03-26T02:49:51.372Z,98.05
2019-03-26T02:50:51.297Z,97.95
2019-03-26T02:51:51.283Z,98.16
2019-03-26T02:52:51.255Z,98.05
2019-03-26T02:53:51.337Z,97.95
2019-03-26T02:54:51.246Z,98.05
2019-03-26T02:55:51.273Z,97.95
2019-03-26T02:56:51.224Z,97.64
2019-03-26T02:57:51.237Z,97.85
2019-03-26T02:58:51.203Z,97.95
2019-03-26T02:59:51.195Z,97.85
2019-03-26T03:00:51.190Z,97.64
2019-03-26T03:01:51.191Z,97.22
2019-03-26T03:02:51.179Z,97.53
2019-03-26T03:03:51.150Z,97.43
2019-03-26T03:04:51.160Z,97.33
2019-03-26T03:05:51.173Z,97.64
2019-03-26T03:06:51.193Z,97.33
2019-03-26T03:07:51.103Z,97.68
2019-03-26T03:08:51.122Z,97.47
2019-03-26T03:09:51.100Z,97.37
2019-03-26T03:10:51.081Z,97.12
2019-03-26T03:11:51.121Z,97.33
2019-03-26T03:12:51.145Z,97.64
2019-03-26T03:13:51.049Z,97.53
2019-03-26T03:14:51.058Z,97.43
2019-03-26T03:15:51.050Z,97.74
2019-03-26T03:16:51.023Z,97.64
2019-03-26T03:17:50.989Z,97.33
2019-03-26T03:18:51.060Z,97.22
2019-03-26T03:19:50.991Z,97.33
2019-03-26T03:20:50.978Z,97.12
2019-03-26T03:21:50.985Z,97.01
2019-03-26T03:22:50.960Z,96.70
2019-03-26T03:23:50.956Z,97.01
2019-03-26T03:24:50.932Z,96.08
2019-03-26T03:25:50.947Z,96.08
2019-03-26T03:26:50.940Z,96.43
2019-03-26T03:27:50.912Z,96.33
2019-03-26T03:28:50.918Z,96.39
2019-03-26T03:29:50.925Z,96.39
2019-03-26T03:30:50.872Z,96.43
2019-03-26T03:31:50.967Z,96.49
2019-03-26T03:32:50.879Z,96.39
2019-03-26T03:33:50.862Z,96.18
2019-03-26T03:34:50.843Z,96.39
2019-03-26T03:35:52.909Z,96.18
2019-03-26T03:36:50.799Z,96.22
2019-03-26T03:37:50.812Z,96.49
2019-03-26T03:38:50.822Z,96.08
2019-03-26T03:39:50.834Z,96.28
2019-03-26T03:40:50.780Z,96.28
2019-03-26T03:41:50.769Z,96.49
2019-03-26T03:42:50.787Z,96.49
2019-03-26T03:43:50.745Z,96.39
2019-03-26T03:44:50.724Z,96.49
2019-03-26T03:45:50.720Z,96.80
2019-03-26T03:46:50.713Z,96.39
2019-03-26T03:47:50.727Z,95.87
2019-03-26T03:48:50.698Z,95.97
2019-03-26T03:49:50.749Z,96.08
2019-03-26T03:50:50.707Z,95.76
2019-03-26T03:51:50.668Z,95.76
2019-03-26T03:52:50.682Z,96.03
2019-03-26T03:53:50.644Z,96.08
2019-03-26T03:54:50.610Z,95.87
2019-03-26T03:55:50.726Z,96.08
2019-03-26T03:56:50.628Z,96.28
2019-03-26T03:57:52.774Z,96.03
2019-03-26T03:58:50.625Z,96.28
2019-03-26T03:59:51.396Z,96.14
2019-03-26T04:00:50.574Z,95.40
2019-03-26T04:01:50.613Z,95.62
2019-03-26T04:02:50.557Z,95.76
2019-03-26T04:03:50.549Z,95.87
2019-03-26T04:04:50.537Z,95.66
2019-03-26T04:05:50.527Z,95.56
2019-03-26T04:06:50.512Z,95.25
2019-03-26T04:07:50.513Z,96.18
2019-03-26T04:08:50.502Z,95.87
2019-03-26T04:09:50.492Z,95.35
2019-03-26T04:10:50.503Z,95.35
2019-03-26T04:11:50.488Z,95.56
2019-03-26T04:12:50.458Z,96.08
2019-03-26T04:13:50.437Z,95.35
2019-03-26T04:14:50.424Z,95.76
2019-03-26T04:15:50.404Z,95.56
2019-03-26T04:16:50.394Z,95.76
2019-03-26T04:17:50.411Z,95.56
2019-03-26T04:18:50.365Z,95.56
2019-03-26T04:19:50.352Z,95.56
2019-03-26T04:20:50.347Z,95.66
2019-03-26T04:21:50.499Z,95.87
2019-03-26T04:22:50.395Z,95.87
2019-03-26T04:23:52.243Z,95.45
2019-03-26T04:24:50.868Z,95.66
2019-03-26T04:25:50.860Z,95.87
2019-03-26T04:26:50.354Z,95.87
2019-03-26T04:27:50.303Z,95.56
2019-03-26T04:28:50.282Z,95.66
2019-03-26T04:29:50.275Z,95.56
2019-03-26T04:30:50.264Z,95.66
2019-03-26T04:31:50.298Z,95.25
2019-03-26T04:32:50.221Z,95.45
2019-03-26T04:33:50.295Z,95.14
2019-03-26T04:34:50.905Z,95.14
2019-03-26T04:35:50.211Z,94.87
2019-03-26T04:36:51.222Z,95.97
2019-03-26T04:37:50.179Z,95.25
2019-03-26T04:38:50.205Z,95.87
2019-03-26T04:39:50.195Z,95.35
2019-03-26T04:40:50.328Z,95.35
2019-03-26T04:41:50.141Z,94.93
2019-03-26T04:42:50.116Z,95.56
2019-03-26T04:43:50.129Z,95.56
2019-03-26T04:44:50.156Z,95.40
2019-03-26T04:45:50.134Z,95.66
2019-03-26T04:46:50.094Z,95.30
2019-03-26T04:47:50.088Z,95.30
2019-03-26T04:48:50.083Z,95.30
2019-03-26T04:49:50.068Z,94.78
2019-03-26T04:50:50.044Z,94.89
2019-03-26T04:51:50.037Z,95.09
2019-03-26T04:52:50.042Z,94.84
2019-03-26T04:53:50.042Z,95.05
2019-03-26T04:54:50.021Z,94.74
2019-03-26T04:55:50.004Z,94.53
2019-03-26T04:56:50.009Z,93.60
2019-03-26T04:57:49.983Z,94.01
2019-03-26T04:58:49.972Z,93.97
2019-03-26T04:59:49.948Z,93.97
2019-03-26T05:00:49.923Z,93.87
2019-03-26T05:01:50.003Z,93.97
2019-03-26T05:02:49.922Z,93.66
2019-03-26T05:03:49.896Z,93.70
2019-03-26T05:04:49.890Z,93.66
2019-03-26T05:05:49.894Z,93.66
2019-03-26T05:06:49.942Z,93.76
2019-03-26T05:07:49.865Z,93.87
2019-03-26T05:08:49.886Z,93.45
2019-03-26T05:09:49.863Z,93.87
2019-03-26T05:10:49.827Z,94.18
2019-03-26T05:11:49.847Z,93.97
2019-03-26T05:12:49.840Z,93.87
2019-03-26T05:13:49.821Z,93.97
2019-03-26T05:14:49.818Z,93.87
2019-03-26T05:15:49.812Z,93.66
2019-03-26T05:16:49.788Z,93.97
2019-03-26T05:17:49.746Z,93.87
2019-03-26T05:18:49.765Z,94.07
2019-03-26T05:19:49.800Z,94.07
2019-03-26T05:20:49.858Z,94.07
2019-03-26T05:21:49.783Z,94.07
2019-03-26T05:22:49.726Z,93.45
2019-03-26T05:23:51.926Z,93.82
2019-03-26T05:24:49.696Z,93.66
2019-03-26T05:25:49.678Z,93.66
2019-03-26T05:26:49.694Z,93.55
2019-03-26T05:27:49.642Z,94.49
2019-03-26T05:28:49.649Z,94.45
2019-03-26T05:29:49.642Z,94.49
2019-03-26T05:30:49.680Z,94.59
2019-03-26T05:31:49.677Z,94.80
2019-03-26T05:32:51.486Z,94.34
2019-03-26T05:34:04.675Z,94.55
2019-03-26T05:34:57.945Z,94.34
2019-03-26T05:36:01.763Z,94.55
2019-03-26T05:36:51.802Z,94.55
2019-03-26T05:37:49.561Z,94.49
2019-03-26T05:38:49.580Z,94.59
2019-03-26T05:39:49.534Z,95.11
2019-03-26T05:40:49.588Z,94.90
2019-03-26T05:41:49.515Z,94.65
2019-03-26T05:42:49.632Z,94.65
2019-03-26T05:43:49.513Z,94.86
2019-03-26T05:44:49.499Z,94.59
2019-03-26T05:45:49.733Z,95.01
2019-03-26T05:46:49.481Z,95.01
2019-03-26T05:47:49.461Z,94.65
2019-03-26T05:48:49.451Z,94.24
2019-03-26T05:49:49.442Z,94.24
2019-03-26T05:50:49.452Z,93.82
2019-03-26T05:51:49.403Z,94.03
2019-03-26T05:52:49.449Z,93.41
2019-03-26T05:53:49.399Z,93.10
2019-03-26T05:54:49.379Z,93.05
2019-03-26T05:55:49.388Z,93.05
2019-03-26T05:56:49.366Z,92.22
2019-03-26T05:57:49.354Z,92.11
2019-03-26T05:58:49.351Z,91.91
2019-03-26T05:59:49.337Z,91.60
2019-03-26T06:00:49.321Z,91.60
2019-03-26T06:01:49.339Z,91.60
2019-03-26T06:02:49.294Z,91.60
2019-03-26T06:03:49.296Z,90.87
2019-03-26T06:04:49.349Z,90.35
2019-03-26T06:05:51.067Z,90.04
2019-03-26T06:06:49.382Z,90.35
2019-03-26T06:07:49.267Z,89.58
2019-03-26T06:08:49.234Z,89.52
2019-03-26T06:09:49.257Z,88.54
2019-03-26T06:10:49.251Z,89.89
2019-03-26T06:11:49.209Z,88.96
2019-03-26T06:12:50.407Z,89.23
2019-03-26T06:13:49.218Z,88.09
2019-03-26T06:14:49.263Z,88.40
2019-03-26T06:15:49.244Z,87.57
2019-03-26T06:16:49.191Z,87.88
2019-03-26T06:17:49.175Z,87.53
2019-03-26T06:18:49.149Z,88.09
2019-03-26T06:19:50.385Z,87.63
2019-03-26T06:20:49.142Z,87.22
2019-03-26T06:21:49.139Z,86.91
2019-03-26T06:22:49.120Z,87.07
2019-03-26T06:23:49.085Z,86.04
2019-03-26T06:24:49.070Z,85.94
2019-03-26T06:25:49.059Z,85.52
2019-03-26T06:26:49.072Z,85.63
2019-03-26T06:27:49.085Z,85.42
2019-03-26T06:28:49.091Z,85.52
2019-03-26T06:29:49.010Z,84.13
2019-03-26T06:30:49.053Z,84.28
2019-03-26T06:31:49.010Z,84.59
2019-03-26T06:32:49.032Z,84.55
2019-03-26T06:33:48.986Z,84.86
2019-03-26T06:34:48.964Z,84.86
2019-03-26T06:35:48.952Z,84.44
2019-03-26T06:36:48.982Z,83.93
2019-03-26T06:37:48.944Z,83.86
2019-03-26T06:38:48.933Z,83.93
2019-03-26T06:39:48.982Z,83.34
2019-03-26T06:40:48.898Z,83.65
2019-03-26T06:41:49.434Z,84.13
2019-03-26T06:42:48.933Z,84.34
2019-03-26T06:43:49.458Z,83.31
2019-03-26T06:44:49.509Z,83.06
2019-03-26T06:45:48.848Z,83.31
2019-03-26T06:46:48.924Z,83.37
2019-03-26T06:47:48.847Z,83.16
2019-03-26T06:48:48.856Z,83.26
2019-03-26T06:49:48.837Z,82.50
2019-03-26T06:50:48.802Z,82.81
2019-03-26T06:51:48.803Z,82.29
2019-03-26T06:52:48.820Z,81.16
2019-03-26T06:53:48.948Z,81.26
2019-03-26T06:54:51.525Z,80.85
2019-03-26T06:55:48.800Z,80.43
2019-03-26T06:56:48.761Z,80.43
2019-03-26T06:57:48.740Z,80.33
2019-03-26T06:58:48.789Z,81.26
2019-03-26T06:59:48.788Z,80.81
2019-03-26T07:00:48.703Z,81.05
2019-03-26T07:01:48.732Z,81.23
2019-03-26T07:02:48.711Z,80.81
2019-03-26T07:03:48.671Z,80.50
2019-03-26T07:04:48.675Z,80.60
2019-03-26T07:05:48.663Z,80.71
2019-03-26T07:06:48.620Z,80.60
2019-03-26T07:07:48.624Z,80.50
2019-03-26T07:08:48.654Z,80.54
2019-03-26T07:09:48.634Z,80.60
2019-03-26T07:10:48.643Z,80.33
2019-03-26T07:11:48.597Z,80.95
2019-03-26T07:12:48.671Z,80.22
2019-03-26T07:13:48.584Z,80.33
2019-03-26T07:14:48.581Z,80.43
2019-03-26T07:15:48.568Z,80.74
2019-03-26T07:16:48.572Z,80.43
2019-03-26T07:17:48.934Z,80.54
2019-03-26T07:18:48.892Z,79.60
2019-03-26T07:19:48.493Z,79.71
2019-03-26T07:20:48.490Z,80.12
2019-03-26T07:21:49.919Z,79.30
2019-03-26T07:22:48.496Z,79.36
2019-03-26T07:23:48.469Z,78.74
2019-03-26T07:24:48.435Z,78.95
2019-03-26T07:25:48.441Z,79.47
2019-03-26T07:26:48.461Z,78.60
2019-03-26T07:27:48.397Z,78.15
2019-03-26T07:28:48.409Z,78.63
2019-03-26T07:29:48.378Z,76.15
2019-03-26T07:30:48.369Z,76.22
2019-03-26T07:31:48.392Z,75.60
2019-03-26T07:32:48.353Z,74.95
2019-03-26T07:33:48.343Z,74.53
2019-03-26T07:34:48.347Z,74.74
2019-03-26T07:35:48.373Z,74.33
2019-03-26T07:36:48.301Z,74.77
2019-03-26T07:37:48.330Z,75.26
2019-03-26T07:38:48.316Z,75.26
2019-03-26T07:39:48.419Z,74.43
2019-03-26T07:40:48.306Z,74.19
2019-03-26T07:41:48.314Z,73.98
2019-03-26T07:42:48.246Z,73.36
2019-03-26T07:43:48.334Z,73.47
2019-03-26T07:44:48.265Z,73.02
2019-03-26T07:45:48.237Z,73.43
2019-03-26T07:46:48.212Z,73.02
2019-03-26T07:47:48.223Z,72.81
2019-03-26T07:48:48.518Z,73.12
2019-03-26T07:49:48.177Z,73.85
2019-03-26T07:50:48.187Z,74.05
2019-03-26T07:51:48.176Z,73.54
2019-03-26T07:52:48.152Z,73.64
2019-03-26T07:53:48.143Z,74.26
2019-03-26T07:54:48.187Z,74.15
2019-03-26T07:55:48.108Z,74.02
2019-03-26T07:56:48.112Z,73.02
2019-03-26T07:57:48.096Z,73.33
2019-03-26T07:58:48.109Z,72.99
2019-03-26T07:59:48.066Z,73.05
2019-03-26T08:00:48.045Z,72.13
2019-03-26T08:01:48.209Z,72.23
2019-03-26T08:02:48.103Z,72.03
2019-03-26T08:03:48.063Z,71.41
2019-03-26T08:04:48.057Z,71.30
2019-03-26T08:05:48.034Z,71.48
2019-03-26T08:06:48.071Z,71.44
2019-03-26T08:07:57.826Z,71.37
2019-03-26T08:08:49.065Z,71.44
2019-03-26T08:09:48.019Z,70.83
2019-03-26T08:10:48.095Z,70.83
2019-03-26T08:11:47.943Z,70.18
2019-03-26T08:12:47.953Z,70.07
2019-03-26T08:13:47.948Z,69.53
2019-03-26T08:14:48.071Z,68.77
2019-03-26T08:15:47.967Z,68.23
2019-03-26T08:16:47.957Z,67.41
2019-03-26T08:17:47.957Z,66.69
2019-03-26T08:18:47.872Z,67.23
2019-03-26T08:19:47.937Z,67.54
2019-03-26T08:20:47.896Z,68.29
2019-03-26T08:21:47.907Z,68.57
2019-03-26T08:22:47.841Z,67.57
2019-03-26T08:23:47.831Z,67.26
2019-03-26T08:24:48.708Z,67.36
2019-03-26T08:25:47.856Z,67.26
2019-03-26T08:26:51.793Z,68.26
2019-03-26T08:27:48.542Z,66.93
2019-03-26T08:28:47.774Z,66.54
2019-03-26T08:29:47.766Z,67.06
2019-03-26T08:30:50.148Z,67.16
2019-03-26T08:31:47.805Z,67.71
2019-03-26T08:32:47.762Z,68.19
2019-03-26T08:33:47.736Z,68.12
2019-03-26T08:34:47.702Z,68.63
2019-03-26T08:35:47.789Z,68.22
2019-03-26T08:36:47.822Z,68.32
2019-03-26T08:37:47.690Z,68.35
2019-03-26T08:38:47.663Z,69.01
2019-03-26T08:39:47.706Z,69.07
2019-03-26T08:40:47.672Z,68.39
2019-03-26T08:41:47.680Z,68.80
2019-03-26T08:42:47.653Z,67.66
2019-03-26T08:43:47.661Z,67.84
2019-03-26T08:44:47.613Z,67.94
2019-03-26T08:45:47.580Z,66.40
2019-03-26T08:46:47.587Z,65.47
2019-03-26T08:47:48.097Z,65.99
2019-03-26T08:48:47.577Z,65.55
2019-03-26T08:49:47.583Z,65.55
2019-03-26T08:50:47.567Z,65.23
2019-03-26T08:51:47.642Z,63.05
2019-03-26T08:52:47.558Z,63.76
2019-03-26T08:53:47.526Z,63.25
2019-03-26T08:54:47.538Z,63.79
2019-03-26T08:55:47.509Z,63.69
2019-03-26T08:56:47.520Z,64.51
2019-03-26T08:57:47.465Z,65.55
2019-03-26T08:58:47.454Z,65.47
2019-03-26T08:59:47.484Z,65.13
2019-03-26T09:00:47.485Z,65.13
2019-03-26T09:01:47.517Z,65.03
2019-03-26T09:02:47.574Z,65.55
2019-03-26T09:03:47.393Z,65.55
2019-03-26T09:04:47.410Z,65.55
2019-03-26T09:05:47.395Z,65.41
2019-03-26T09:06:47.966Z,64.59
2019-03-26T09:07:47.426Z,63.84
2019-03-26T09:08:47.362Z,64.04
2019-03-26T09:09:47.328Z,62.43
2019-03-26T09:10:52.025Z,63.87
2019-03-26T09:11:47.311Z,63.25
2019-03-26T09:12:47.319Z,62.43
2019-03-26T09:13:47.320Z,62.43
2019-03-26T09:14:47.306Z,62.81
2019-03-26T09:15:47.287Z,61.79
2019-03-26T09:16:47.272Z,61.88
2019-03-26T09:17:47.268Z,61.79
2019-03-26T09:18:47.255Z,61.88
2019-03-26T09:19:47.245Z,62.27
2019-03-26T09:20:47.235Z,61.86
2019-03-26T09:21:47.246Z,62.88
2019-03-26T09:22:47.207Z,62.48
2019-03-26T09:23:47.191Z,62.48
2019-03-26T09:24:47.203Z,62.06
2019-03-26T09:25:47.185Z,62.14
2019-03-26T09:26:47.187Z,61.93
2019-03-26T09:27:47.174Z,62.58
2019-03-26T09:28:48.029Z,62.37
2019-03-26T09:29:47.142Z,63.09
2019-03-26T09:30:47.168Z,62.40
2019-03-26T09:31:47.106Z,62.95
2019-03-26T09:32:47.087Z,62.02
2019-03-26T09:33:47.066Z,61.79
2019-03-26T09:34:47.118Z,60.86
2019-03-26T09:35:47.071Z,61.17
2019-03-26T09:36:47.073Z,60.65
2019-03-26T09:37:47.043Z,61.58
2019-03-26T09:38:47.030Z,63.15
2019-03-26T09:39:47.028Z,61.68
2019-03-26T09:40:47.028Z,60.24
2019-03-26T09:41:47.000Z,61.27
2019-03-26T09:42:46.979Z,61.65
2019-03-26T09:43:46.985Z,62.48
2019-03-26T09:44:47.000Z,61.24
2019-03-26T09:45:47.023Z,60.63
2019-03-26T09:46:47.355Z,60.42
2019-03-26T09:47:47.012Z,60.29
2019-03-26T09:48:46.958Z,60.60
2019-03-26T09:49:46.942Z,60.19
2019-03-26T09:50:46.958Z,60.49
2019-03-26T09:51:46.961Z,60.49
2019-03-26T09:52:46.937Z,60.31
2019-03-26T09:53:46.894Z,61.93
2019-03-26T09:54:46.881Z,61.86
2019-03-26T09:55:46.943Z,62.99
2019-03-26T09:56:46.873Z,62.48
2019-03-26T09:57:46.847Z,63.71
2019-03-26T09:58:46.863Z,64.22
2019-03-26T09:59:46.906Z,62.75
2019-03-26T10:00:46.934Z,62.96
2019-03-26T10:01:46.805Z,62.55
2019-03-26T10:02:46.854Z,63.68
2019-03-26T10:03:46.797Z,63.06
2019-03-26T10:04:46.769Z,63.57
2019-03-26T10:05:46.802Z,64.22
2019-03-26T10:06:46.739Z,64.73
2019-03-26T10:07:46.767Z,64.40
2019-03-26T10:08:52.494Z,64.22
2019-03-26T10:09:47.731Z,64.12
2019-03-26T10:10:46.707Z,64.76
2019-03-26T10:11:46.704Z,64.36
2019-03-26T10:12:46.679Z,65.89
2019-03-26T10:13:46.763Z,65.72
2019-03-26T10:14:46.667Z,65.72
2019-03-26T10:15:46.640Z,66.06
2019-03-26T10:16:46.650Z,65.86
2019-03-26T10:17:46.629Z,65.92
2019-03-26T10:18:46.626Z,65.80
2019-03-26T10:19:46.644Z,65.89
2019-03-26T10:20:46.603Z,65.25
2019-03-26T10:21:46.587Z,64.94
2019-03-26T10:22:46.571Z,64.29
2019-03-26T10:23:46.569Z,63.91
2019-03-26T10:24:46.587Z,63.09
2019-03-26T10:25:46.605Z,62.65
2019-03-26T10:26:46.573Z,62.24
2019-03-26T10:27:46.507Z,63.81
2019-03-26T10:28:46.555Z,63.17
2019-03-26T10:29:46.502Z,63.78
2019-03-26T10:30:46.508Z,62.45
2019-03-26T10:31:46.499Z,62.85
2019-03-26T10:32:46.459Z,62.34
2019-03-26T10:33:46.465Z,63.17
2019-03-26T10:34:46.469Z,63.81
2019-03-26T10:35:46.449Z,63.94
2019-03-26T10:36:46.455Z,64.01
2019-03-26T10:37:46.399Z,65.56
2019-03-26T10:38:46.451Z,66.48
2019-03-26T10:39:46.391Z,66.58
2019-03-26T10:40:46.406Z,67.00
2019-03-26T10:41:46.371Z,67.23
2019-03-26T10:42:46.395Z,68.95
2019-03-26T10:43:46.340Z,69.15
2019-03-26T10:44:46.339Z,68.37
2019-03-26T10:45:46.331Z,68.54
2019-03-26T10:46:46.372Z,69.46
2019-03-26T10:47:46.329Z,68.91
2019-03-26T10:48:46.340Z,69.23
2019-03-26T10:49:46.287Z,68.57
2019-03-26T10:50:46.282Z,67.65
2019-03-26T10:51:46.292Z,66.90
2019-03-26T10:52:46.331Z,67.69
2019-03-26T10:53:46.258Z,65.57
2019-03-26T10:54:46.224Z,66.08
2019-03-26T10:55:46.286Z,67.72
2019-03-26T10:56:46.231Z,67.38
2019-03-26T10:57:46.232Z,66.08
2019-03-26T10:58:46.191Z,65.54
2019-03-26T10:59:46.210Z,65.64
2019-03-26T11:00:46.188Z,65.36
2019-03-26T11:01:46.168Z,64.92
2019-03-26T11:02:46.138Z,65.47
2019-03-26T11:03:46.172Z,64.34
2019-03-26T11:04:46.133Z,64.00
2019-03-26T11:05:46.163Z,63.18
2019-03-26T11:06:46.102Z,63.49
2019-03-26T11:07:46.111Z,63.69
2019-03-26T11:08:46.083Z,62.87
2019-03-26T11:09:46.087Z,62.18
2019-03-26T11:10:46.092Z,62.87
2019-03-26T11:11:46.034Z,63.72
2019-03-26T11:12:46.061Z,62.90
2019-03-26T11:13:46.050Z,63.51
2019-03-26T11:14:46.032Z,63.82
2019-03-26T11:15:46.101Z,63.82
2019-03-26T11:16:45.995Z,62.90
2019-03-26T11:17:45.995Z,61.95
2019-03-26T11:18:45.990Z,62.70
2019-03-26T11:19:46.511Z,62.83
2019-03-26T11:20:45.958Z,62.93
2019-03-26T11:21:45.955Z,62.52
2019-03-26T11:22:45.950Z,62.29
2019-03-26T11:23:45.946Z,62.41
2019-03-26T11:24:45.952Z,62.31
2019-03-26T11:25:45.952Z,62.21
2019-03-26T11:26:45.888Z,62.83
2019-03-26T11:27:45.901Z,63.98
2019-03-26T11:28:45.891Z,63.98
2019-03-26T11:29:45.864Z,63.78
2019-03-26T11:30:45.851Z,64.22
2019-03-26T11:31:45.853Z,65.25
2019-03-26T11:32:45.826Z,66.14
2019-03-26T11:33:45.829Z,66.35
2019-03-26T11:34:45.805Z,67.27
2019-03-26T11:35:45.851Z,66.89
2019-03-26T11:36:45.835Z,67.71
2019-03-26T11:37:45.779Z,68.57
2019-03-26T11:38:45.788Z,69.70
2019-03-26T11:39:45.775Z,71.69
2019-03-26T11:40:45.781Z,74.26
2019-03-26T11:41:45.757Z,74.87
2019-03-26T11:42:45.719Z,76.11
2019-03-26T11:43:45.704Z,76.66
2019-03-26T11:44:45.702Z,76.86
2019-03-26T11:45:45.708Z,77.58
2019-03-26T11:46:45.686Z,77.97
2019-03-26T11:47:45.666Z,79.93
2019-03-26T11:48:45.713Z,80.30
2019-03-26T11:49:45.666Z,80.30
2019-03-26T11:50:45.635Z,82.10
2019-03-26T11:51:45.640Z,83.54
2019-03-26T11:52:45.624Z,83.23
2019-03-26T11:53:45.595Z,82.92
2019-03-26T11:54:45.598Z,83.13
2019-03-26T11:55:45.664Z,85.71
2019-03-26T11:56:45.588Z,85.57
2019-03-26T11:57:45.604Z,85.05
2019-03-26T11:58:45.567Z,85.01
2019-03-26T11:59:45.556Z,82.40
2019-03-26T12:00:45.532Z,83.42
2019-03-26T12:01:45.548Z,81.12
2019-03-26T12:02:45.519Z,82.40
2019-03-26T12:03:45.516Z,82.77
2019-03-26T12:04:45.513Z,80.13
2019-03-26T12:05:45.463Z,80.68
2019-03-26T12:06:45.470Z,80.20
2019-03-26T12:07:45.453Z,81.89
2019-03-26T12:08:45.455Z,82.30
2019-03-26T12:09:46.803Z,82.57
2019-03-26T12:10:45.461Z,82.68
2019-03-26T12:11:45.461Z,82.37
2019-03-26T12:12:45.401Z,83.50
2019-03-26T12:13:45.417Z,83.50
2019-03-26T12:14:45.418Z,82.98
2019-03-26T12:15:45.464Z,83.50
2019-03-26T12:16:45.360Z,83.98
2019-03-26T12:17:45.348Z,83.01
2019-03-26T12:18:45.343Z,82.46
2019-03-26T12:19:45.352Z,82.19
2019-03-26T12:20:45.338Z,82.97
2019-03-26T12:21:45.310Z,81.67
2019-03-26T12:22:45.297Z,82.05
2019-03-26T12:23:45.302Z,80.71
2019-03-26T12:24:45.288Z,80.40
2019-03-26T12:25:45.301Z,81.81
2019-03-26T12:26:45.931Z,79.81
2019-03-26T12:27:45.273Z,79.84
2019-03-26T12:28:45.235Z,77.85
2019-03-26T12:29:45.220Z,77.65
2019-03-26T12:30:45.231Z,77.34
2019-03-26T12:31:45.219Z,76.45
2019-03-26T12:32:45.233Z,75.38
2019-03-26T12:33:45.169Z,74.94
2019-03-26T12:34:45.173Z,76.28
2019-03-26T12:35:45.168Z,77.26
2019-03-26T12:36:45.178Z,75.69
2019-03-26T12:37:45.158Z,75.01
2019-03-26T12:38:45.145Z,74.91
2019-03-26T12:39:58.405Z,75.11
2019-03-26T12:40:46.133Z,75.21
2019-03-26T12:41:45.110Z,75.01
2019-03-26T12:42:45.101Z,75.21
2019-03-26T12:43:45.098Z,75.15
2019-03-26T12:44:45.053Z,75.83
2019-03-26T12:45:45.093Z,76.04
2019-03-26T12:46:45.043Z,75.69
2019-03-26T12:47:45.036Z,74.63
2019-03-26T12:48:45.025Z,74.53
2019-03-26T12:49:45.031Z,73.68
2019-03-26T12:50:45.027Z,72.99
2019-03-26T12:51:45.037Z,73.19
2019-03-26T12:52:44.989Z,72.96